Tiempo atmosférico en la estación meteorológica de Puerto De San Isidro, León (1510 m.)



Fecha
DESCASC
Temp. máxima en grados centígrados (hora)
DESCASC
Temp. mínima en grados centígrados (hora)
DESCASC
Temp. media en grados centígrados
DESCASC
Racha de viento máxima en m/sg (hora)
DESCASC
Velocidad máxima media en intervalos de 10 minutos(hora)
DESCASC
Precipitaciones diarias en mm
DESCASC
Precipitaciones de 00:00 a 06:00 en mm
DESCASC
Precipitaciones de 06:00 a 12:00 en mm
DESCASC
Precipitaciones de 12:00 a 18:00 en mm
DESCASC
Precipitaciones de 18:00 a 24:00 en mm
DESCASC
05-12-2019 5 (14:20) -0.1 (00:00) 2.4 9.72 (03:00) 4.44 (03:00) 1.4 1 0.4 0 0
04-12-2019 2.6 (11:50) -3 (22:00) -0.2 12.5 (04:10) 6.67 (01:20) 0.8 0 0.2 0.6 0
03-12-2019 -0.9 (23:59) -7.4 (-00:0) -4.2 11.11 (05:20) 6.67 (02:40) 0 0 0 0 0
02-12-2019 0.6 (15:20) -4.4 (-00:0) -1.9 12.5 (11:50) 7.22 (12:00) 4.2 0 0.2 4 0
01-12-2019 3 (13:30) -0.9 (-00:0) 1.1 16.39 (21:00) 8.61 (21:00) 5.8 1 1.8 3 0
30-11-2019 7.6 (09:50) -0.6 (-00:0) 3.5 14.72 (03:10) 7.78 (11:30) 7.6 1.2 6.4 0 0
29-11-2019 7.6 (14:00) 0.9 (00:00) 4.2 7.78 (07:50) 5.83 (07:50) 1 1 0 0 0
28-11-2019 7 (12:40) 1.9 (00:00) 4.4 14.44 (12:00) 7.78 (12:00) 7.8 0 0 3.6 4.2
27-11-2019 5.3 (12:00) 0.6 (00:00) 3 -- (--) -- (--) 1.8 0 0 1.6 0.2
26-11-2019 8.7 (05:20) 1.9 (00:00) 5.3 -- (--) -- (--) 3.8 0 1.2 0.2 2.4
25-11-2019 5.6 (01:50) 1.4 (00:00) 3.5 -- (--) -- (--) 0 0 0 0 0
24-11-2019 5.2 (23:59) -2 (-00:0) 1.6 -- (--) -- (--) 1.4 0.2 0 0.6 0.6
23-11-2019 2.7 (00:00) -1.5 (-00:0) 0.6 -- (--) -- (--) 3.8 1.6 0 2.2 0
22-11-2019 6.5 (15:20) 0.1 (00:00) 3.3 -- (--) -- (--) 18.2 1 13.8 2.2 1.2
21-11-2019 4.1 (13:30) -1.7 (-00:0) 1.2 -- (--) -- (--) 0.8 0 0.4 0.4 0
20-11-2019 -- (--) -- (--) -- -- (--) -- (--) -- -- -- -- 0.6
19-11-2019 -- (--) -- (--) -- -- (--) -- (--) -- -- -- -- --
18-11-2019 -- (--) -- (--) -- -- (--) -- (--) -- -- -- -- --
17-11-2019 -- (--) -- (--) -- -- (--) -- (--) -- -- -- -- --
16-11-2019 -- (--) -- (--) -- -- (--) -- (--) -- -- -- -- --
15-11-2019 -1.6 (12:40) -3.1 (-00:0) -2.3 -- (--) -- (--) 0 0 0 0 0
14-11-2019 0.9 (00:00) -4.3 (-00:0) -1.7 23.06 (04:00) 13.89 (04:00) 0.4 0.4 0 0 0
13-11-2019 5.4 (02:10) 0.8 (00:00) 3.1 15.28 (02:50) 10 (02:50) 25.2 19 5.8 0.2 0.2
12-11-2019 3.2 (14:00) -0.5 (-00:0) 1.4 13.89 (01:00) 10.56 (01:00) 31.2 0 0.4 5.2 25.6
11-11-2019 5.6 (07:50) -0.1 (00:00) 2.7 23.33 (11:00) 11.39 (09:10) 17.8 5.8 8.8 3.2 0
10-11-2019 0 (23:30) -2 (-00:0) -1 33.61 (10:30) 13.61 (08:50) 0 0 0 0 0
09-11-2019 4.9 (14:00) -1.2 (-00:0) 1.9 27.78 (21:50) 15.28 (21:50) 4.6 0 0.8 1 2.8
08-11-2019 -0.1 (13:40) -2.6 (-00:0) -1.3 -- (--) -- (--) 0 0 0 0 0
07-11-2019 4.3 (00:00) -3 (-00:0) 0.7 16.94 (02:10) 10.83 (02:10) 2 1.8 0 0.2 0
06-11-2019 5.5 (23:00) 0.6 (00:00) 3.1 19.17 (01:40) 12.5 (03:50) 9.8 1.8 0.6 0.6 6.8

Gráficas

Temp. máximas Temp. mínimas Temp. medias Precipitaciones Rachas de viento máximas Velocidades máximas media en intervalos de 10 minutos

Datos horarios

Fecha y hora oficial Temperatura (ºC) Velocidad del viento (km/h) Dirección del viento Racha (km/h) Dirección de racha Precipitación (mm) Presión (hPa) Tendencia (hPa) Humedad (%)
2019-12-05 23:00:00 1 7 Este 12 Este 0 853.8 0.2 87
2019-12-05 22:00:00 1.2 5 Este 10 Este 0 853.6 0.4 87
2019-12-05 21:00:00 1 8 Este 14 Este 0 853.4 0.4 86
2019-12-05 20:00:00 1 3 Este 9 Este 0 853.6 0.7 86
2019-12-05 19:00:00 0.8 4 Este 10 Sudeste 0 853.2 0.6 88
2019-12-05 18:00:00 0.5 0 Calma 13 Noroeste 0 853 0.4 93
2019-12-05 17:00:00 1.8 6 Oeste 18 Oeste 0 852.9 0 91
2019-12-05 16:00:00 2.2 14 Oeste 17 Oeste 0 852.6 -0.5 89
2019-12-05 15:00:00 2.9 9 Oeste 15 Oeste 0 852.6 -0.7 85
2019-12-05 14:00:00 4.4 4 Oeste 13 Sudoeste 0 852.9 0 80
2019-12-05 13:00:00 3.7 3 Sudoeste 12 Oeste 0 853.1 0.8 85
2019-12-05 12:00:00 2.8 5 Oeste 12 Oeste 0 853.3 1.5 88
2019-12-05 11:00:00 2.8 6 Norte 17 Norte 0 852.9 1.7 88
2019-12-05 10:00:00 2.7 10 Nordeste 23 Norte 0 852.3 1.6 89
2019-12-05 09:00:00 2.2 9 Norte 30 Noroeste 0 851.8 1.4 91
2019-12-05 08:00:00 1.9 14 Noroeste 24 Noroeste 0.2 851.2 0.9 91
2019-12-05 07:00:00 1.5 14 Noroeste 28 Noroeste 0.2 850.7 0.4 92
2019-12-05 06:00:00 1.8 10 Noroeste 22 Noroeste 0.2 850.4 0.8 90
2019-12-05 05:00:00 1.4 12 Noroeste 26 Noroeste 0.4 850.3 1 92
2019-12-05 04:00:00 1.4 5 Oeste 24 Oeste 0.2 850.3 0.9 90
2019-12-05 03:00:00 1.3 16 Oeste 35 Oeste 0.2 849.6 0.4 91
2019-12-05 02:00:00 1.2 12 Oeste 21 Oeste 0 849.3 0.3 89
2019-12-05 01:00:00 1 8 Sudoeste 27 Oeste 0 849.4 0.9 89
2019-12-05 00:00:00 -0.1 14 Oeste 22 Oeste 0 849.2 1.4 91
2019-12-04 23:00:00 -0.8 14 Oeste 23 Oeste 0 849 1.9 93
2019-12-04 22:00:00 -3 14 Noroeste 22 Oeste 0 848.5 1.7 90
2019-12-04 21:00:00 -1.2 18 Oeste 22 Oeste 0 847.8 1.6 86
2019-12-04 20:00:00 -1.7 20 Oeste 24 Oeste 0 847.1 1.3 83
2019-12-04 19:00:00 -1.9 21 Oeste 25 Oeste 0 846.8 1.4 88
2019-12-04 18:00:00 -0.8 19 Oeste 23 Oeste 0 846.2 1 84
2019-12-04 17:00:00 -0.6 15 Oeste 23 Oeste 0 845.8 0.8 84
2019-12-04 16:00:00 -0.3 18 Oeste 21 Oeste 0 845.4 0.5 84
2019-12-04 15:00:00 1.5 16 Oeste 20 Oeste 0.4 845.2 -0.2 79
2019-12-04 14:00:00 2.1 11 Oeste 19 Oeste 0 845 -0.4 76
2019-12-04 13:00:00 1.6 16 Oeste 19 Oeste 0.2 844.9 -0.1 73
2019-12-04 12:00:00 1.7 14 Oeste 19 Oeste 0.2 845.4 1.1 72
2019-12-04 11:00:00 0.6 5 Sudoeste 14 Sur 0 845.4 1 75
2019-12-04 10:00:00 -1.4 3 Nordeste 12 Sur 0 845 0.9 86
2019-12-04 09:00:00 -0.8 6 Sudeste 12 Sudeste 0 844.3 0.5 86
2019-12-04 08:00:00 -1.6 4 Este 23 Este 0 844.4 0.4 88
2019-12-04 07:00:00 -0.9 19 Este 28 Este 0 844.1 -0.1 86
2019-12-04 06:00:00 -0.7 17 Este 31 Este 0 843.8 -0.8 85
2019-12-04 05:00:00 0.1 13 Sudeste 45 Sudeste 0 844 -0.8 84
2019-12-04 04:00:00 -1.2 18 Este 40 Sudeste 0 844.2 -1.1 81
2019-12-04 03:00:00 -0.9 21 Sudeste 36 Sudeste 0 844.6 -0.8 71
2019-12-04 02:00:00 -2.1 23 Este 41 Sur 0 844.8 -0.1 83
2019-12-04 01:00:00 -1.4 13 Sudeste 41 Sudeste 0 845.3 -0.1 80
2019-12-04 00:00:00 -1.3 10 Sudeste 37 Sur 0 845.4 -0.2 72
2019-12-03 23:00:00 -2.3 17 Este 35 Sudeste 0 844.9 -1 73
2019-12-03 22:00:00 -4.3 12 Este 35 Este 0 845.4 -0.2 87
2019-12-03 21:00:00 -4.6 3 Este 13 Sudeste 0 845.6 0.2 86
2019-12-03 20:00:00 -4.6 7 Este 19 Sudeste 0 845.9 0 74
2019-12-03 19:00:00 -5.8 5 Este 14 Sur 0 845.6 -0.6 67
2019-12-03 18:00:00 -7.1 9 Noroeste 14 Oeste 0 845.4 -1.2 72
2019-12-03 17:00:00 -5.4 14 Oeste 20 Oeste 0 845.9 -1.1 73
2019-12-03 16:00:00 -3.2 3 Oeste 19 Oeste 0 846.2 -1.6 73
2019-12-03 15:00:00 -2 16 Oeste 21 Oeste 0 846.6 -1.9 82
2019-12-03 14:00:00 -2.4 14 Oeste 22 Oeste 0 847 -2.2 78
2019-12-03 13:00:00 -2.6 17 Oeste 20 Oeste 0 847.8 -1.4 85
2019-12-03 12:00:00 -2.7 8 Noroeste 15 Noroeste 0 848.5 -1 66
2019-12-03 11:00:00 -2.6 10 Oeste 20 Oeste 0 849.2 -0.4 69
2019-12-03 10:00:00 -4.3 14 Oeste 20 Oeste 0 849.2 -0.6 86
2019-12-03 09:00:00 -5.4 14 Oeste 21 Oeste 0 849.5 -0.5 92
2019-12-03 08:00:00 -4.6 9 Oeste 22 Oeste 0 849.6 -0.7 89
2019-12-03 07:00:00 -3.9 10 Oeste 29 Noroeste 0 849.8 -1 91
2019-12-03 06:00:00 -3.1 16 Noroeste 40 Oeste 0 850 -1 89
2019-12-03 05:00:00 -3.6 19 Noroeste 39 Noroeste 0 850.3 -0.8 86
2019-12-03 04:00:00 -3.9 18 Noroeste 33 Noroeste 0 850.8 -0.8 90
2019-12-03 03:00:00 -4.2 18 Oeste 28 Oeste 0 851 -1 91
2019-12-03 02:00:00 -3.1 17 Norte 32 Norte 0 851.1 -0.9 85
2019-12-03 01:00:00 -4.2 15 Oeste 26 Noroeste 0 851.6 -0.9 91
2019-12-03 00:00:00 -3.1 10 Oeste 30 Noroeste 0 852 -0.6 86
2019-12-02 23:00:00 -3.8 15 Oeste -- -- 0 852 -0.4 90
2019-12-02 22:00:00 -3.9 5 Noroeste 15 Noroeste 0 852.5 0.1 87
2019-12-02 21:00:00 -2.3 6 Norte 20 Sudoeste 0 852.6 0.6 89
2019-12-02 20:00:00 -2 6 Noroeste 21 Norte 0 852.4 0.7 90
2019-12-02 19:00:00 -1.5 6 Noroeste 23 Oeste 0 852.4 1.1 92
2019-12-02 18:00:00 -0.6 7 Norte 22 Norte 0.2 852 0.8 93
2019-12-02 17:00:00 0 10 Nordeste 23 Nordeste 0.8 851.7 0.4 94
2019-12-02 16:00:00 0.3 9 Noroeste 39 Noroeste 1.6 851.3 -0.3 94
2019-12-02 15:00:00 0.4 10 Oeste 36 Noroeste 1.4 851.2 -0.4 94
2019-12-02 14:00:00 0.3 18 Noroeste 38 Noroeste 0 851.3 -0.2 93
2019-12-02 13:00:00 0.4 19 Noroeste 44 Noroeste 0 851.6 0.6 94
2019-12-02 12:00:00 0.3 26 Noroeste 45 Noroeste 0 851.6 1.2 93
2019-12-02 11:00:00 0.2 21 Noroeste 41 Noroeste 0.2 851.5 1.3 94
2019-12-02 10:00:00 0.3 14 Noroeste 33 Noroeste 0 851 1.4 94
2019-12-02 09:00:00 0.2 13 Norte 34 Noroeste 0 850.4 1.2 94
2019-12-02 08:00:00 0.2 19 Norte 41 Norte 0 850.2 1.3 94
2019-12-02 07:00:00 0.1 14 Norte 37 Norte 0 849.6 0.6 94
2019-12-02 06:00:00 -0.1 18 Norte 36 Noroeste 0 849.2 0.3 94
2019-12-02 05:00:00 -0.6 20 Noroeste 33 Oeste 0 848.9 0.4 94
2019-12-02 04:00:00 -0.8 14 Oeste 28 Noroeste 0 849 0.9 94
2019-12-02 03:00:00 -0.9 13 Oeste 31 Noroeste 0 848.9 1.2 94
2019-12-02 02:00:00 -0.9 14 Noroeste 35 Oeste 0 848.5 1 94
2019-12-02 01:00:00 -0.8 9 Noroeste 39 Noroeste 0 848.1 1.3 94
2019-12-02 00:00:00 -0.9 19 Noroeste 42 Noroeste 0 847.7 1.1 94
2019-12-01 23:00:00 -0.7 20 Noroeste 41 Noroeste 0 847.5 1.2 94
2019-12-01 22:00:00 -0.5 22 Noroeste 57 Noroeste 0 846.8 1 94
2019-12-01 21:00:00 -0.1 31 Noroeste 59 Noroeste 0 846.6 1.4 94
2019-12-01 20:00:00 0 19 Noroeste 36 Oeste 0 846.3 1.4 94
2019-12-01 19:00:00 0 22 Oeste 33 Noroeste 0 845.8 1.2 94
2019-12-01 18:00:00 0.4 19 Noroeste 27 Noroeste 0.4 845.2 0.7 94
2019-12-01 17:00:00 0.4 12 Noroeste 21 Oeste 0.4 844.9 0.4 93
2019-12-01 16:00:00 0.8 11 Noroeste 21 Noroeste 0.8 844.6 0.1 90
2019-12-01 15:00:00 0.9 11 Oeste 15 Oeste 1 844.5 0.1 91
2019-12-01 14:00:00 1.7 10 Noroeste 15 Noroeste 0 844.5 0.8 87
2019-12-01 13:00:00 1.9 8 Noroeste 15 Noroeste 0.4 844.5 1.3 86
2019-12-01 12:00:00 1.7 4 Noroeste 15 Norte 1.2 844.4 2.1 87
2019-12-01 11:00:00 1.2 4 Sur 9 Sudoeste 0.4 843.7 2.1 87
2019-12-01 10:00:00 0.6 2 Sudeste 12 Nordeste 0 843.2 2.3 94
2019-12-01 09:00:00 0.1 11 Este 18 Este 0 842.3 1.6 94
2019-12-01 08:00:00 0 14 Este 26 Este 0 841.6 0.7 94
2019-12-01 07:00:00 0 19 Este 29 Este 0.2 840.9 -0.4 94
2019-12-01 06:00:00 0.1 18 Este 28 Este 0.2 840.7 -1 94
2019-12-01 05:00:00 0.3 8 Nordeste 28 Este 0.2 840.9 -1.5 93
2019-12-01 04:00:00 0.8 12 Este 28 Sudeste 0.4 841.3 -1.8 89
2019-12-01 03:00:00 1.2 11 Sudeste 31 Sudeste 0.2 841.7 -1.7 87
2019-12-01 02:00:00 1.2 11 Sudeste 26 Sudeste 0 842.4 -1.6 85
2019-12-01 01:00:00 1.4 11 Sudeste 41 Este 0 843.1 -1.4 82
2019-12-01 00:00:00 0.7 19 Este 30 Nordeste 0 843.4 -1.3 89
2019-11-30 23:00:00 0.3 3 Este 24 Sudeste 0 844 -0.7 87
2019-11-30 22:00:00 -0.3 9 Sudeste 19 Este 0 844.5 -0.4 87
2019-11-30 21:00:00 0.1 3 Nordeste 13 Nordeste 0 844.7 -0.2 80
2019-11-30 20:00:00 2.2 8 Sudoeste 23 Sudoeste 0 844.7 -0.2 64
2019-11-30 19:00:00 2.4 13 Sudoeste 21 Sudoeste 0 844.9 0.3 62
2019-11-30 18:00:00 2.7 9 Sudoeste 23 Sudoeste 0 844.9 0.2 62
2019-11-30 17:00:00 3.6 15 Oeste 33 Oeste 0 844.9 0 58
2019-11-30 16:00:00 3.9 24 Oeste 40 Oeste 0 844.6 -0.8 50
2019-11-30 15:00:00 4.7 20 Oeste 43 Oeste 0 844.7 -1.3 60
2019-11-30 14:00:00 4.6 14 Oeste 29 Oeste 0 844.9 -1.1 67
2019-11-30 13:00:00 4.7 14 Oeste 25 Oeste 0 845.4 -0.1 78
2019-11-30 12:00:00 5 15 Oeste 46 Noroeste 0.4 846 -0.2 78
2019-11-30 11:00:00 5.1 13 Oeste 39 Sudoeste 3 846 -0.5 82
2019-11-30 10:00:00 7.3 13 Oeste 42 Sudoeste 0.4 845.5 -1.2 76
2019-11-30 09:00:00 5.4 8 Este 32 Nordeste 0.2 846.2 -1 91
2019-11-30 08:00:00 6.5 5 Oeste 34 Oeste 1 846.5 -1.1 85
2019-11-30 07:00:00 6.8 10 Sur 30 Sudeste 1.4 846.7 -1.6 82
2019-11-30 06:00:00 6.5 16 Sur 40 Sur 0.8 847.2 -1.3 82
2019-11-30 05:00:00 6.7 19 Sur 39 Sur 0.2 847.6 -1.7 82
2019-11-30 04:00:00 6.9 24 Sur 53 Sur 0.2 848.3 -1.6 83
2019-11-30 03:00:00 6.9 24 Sur 44 Sur 0 848.5 -1.8 82
2019-11-30 02:00:00 5.1 21 Sur 32 Sudeste 0 849.3 -1.8 85
2019-11-30 01:00:00 4 15 Este 33 Este 0 849.9 -1.5 90
2019-11-30 00:00:00 3.3 14 Este 27 Este 0 850.3 -1.3 92
2019-11-29 23:00:00 3.5 16 Este 28 Este 0 851.1 -0.3 92
2019-11-29 22:00:00 3.3 11 Nordeste 16 Este 0 851.4 -0.2 92
2019-11-29 21:00:00 3.1 5 Sudeste 10 Este 0 851.6 0.4 92
2019-11-29 20:00:00 3 6 Este 12 Nordeste 0 851.4 0.3 89
2019-11-29 19:00:00 3.2 4 Sudeste 9 Sur 0 851.6 0.5 83
2019-11-29 18:00:00 4.3 6 Este 24 Este 0 851.2 0 77
2019-11-29 17:00:00 4.2 10 Este 19 Sudeste 0 851.1 -0.3 68
2019-11-29 16:00:00 4.8 4 Sudoeste 8 Sur 0 851.1 -0.6 66
2019-11-29 15:00:00 7.2 5 Sudeste 8 Sudeste 0 851.2 -0.8 59
2019-11-29 14:00:00 7.5 0 Calma 11 Sudeste 0 851.4 -0.3 58
2019-11-29 13:00:00 6.4 6 Sudeste 10 Sudeste 0 851.7 0.7 57
2019-11-29 12:00:00 6.1 4 Sudeste 6 Sudeste 0 852 1.6 48
2019-11-29 11:00:00 5.1 3 Sudeste 6 Sudeste 0 851.7 1.8 49
2019-11-29 10:00:00 3.4 2 Norte 10 Oeste 0 851 1.7 55
2019-11-29 09:00:00 1.3 10 Noroeste 25 Oeste 0 850.4 1.4 63
2019-11-29 08:00:00 3.4 19 Oeste 28 Oeste 0 849.9 1.1 60
2019-11-29 07:00:00 2.9 18 Oeste 27 Oeste 0 849.3 0.8 68
2019-11-29 06:00:00 1.8 2 Oeste 14 Oeste 0 849 1.2 93
2019-11-29 05:00:00 0.9 5 Oeste 6 Noroeste 0 848.8 1.1 89
2019-11-29 04:00:00 2.6 3 Sudeste 9 Noroeste 0 848.5 1.1 90
2019-11-29 03:00:00 2.8 3 Noroeste 8 Noroeste 0 847.8 1 90
2019-11-29 02:00:00 3.6 2 Nordeste 10 Noroeste 0.2 847.7 1.5 94
2019-11-29 01:00:00 3.2 7 Oeste 11 Oeste 0.8 847.4 1.9 93
2019-11-29 00:00:00 3 5 Noroeste 10 Noroeste 1.2 846.8 1.9 93
2019-11-28 23:00:00 3 4 Noroeste 9 Sur 0.4 846.2 1.8 93
2019-11-28 22:00:00 3.7 4 Este 13 Este 0 845.5 1.5 92
2019-11-28 21:00:00 4 8 Este 25 Sudoeste 0 844.9 0.9 91
2019-11-28 20:00:00 6.4 14 Sudoeste 33 Sudoeste 0 844.4 0.6 80
2019-11-28 19:00:00 3.9 8 Sudeste 20 Sudoeste 2.6 844 0.2 87
2019-11-28 18:00:00 5.4 6 Sudoeste 33 Sudoeste 0.4 844 0.4 79
2019-11-28 17:00:00 4.4 7 Sudeste 18 Oeste 0.6 843.8 -0.1 84
2019-11-28 16:00:00 5 11 Sudoeste 39 Oeste 1 843.8 -0.4 79
2019-11-28 15:00:00 6 14 Sudoeste 41 Sudoeste 0 843.6 -1 68
2019-11-28 14:00:00 5.9 16 Oeste 31 Sudoeste 1.6 843.9 -1.2 81
2019-11-28 13:00:00 6.6 15 Sudoeste 51 Oeste 0 844.2 -0.7 77
2019-11-28 12:00:00 6.8 28 Oeste 52 Oeste 0 844.6 0.4 73
2019-11-28 11:00:00 6 12 Sudoeste 26 Sudoeste 0 845.1 1.2 82
2019-11-28 10:00:00 3.6 8 Sudeste 19 Sur 0 844.9 1.8 94
2019-11-28 09:00:00 2.9 9 Este 16 Este 0 844.2 1.4 94
2019-11-28 08:00:00 2.6 5 Este 24 Este 0 843.9 1.2 93
2019-11-28 07:00:00 3.2 12 Este 24 Este 0 843.1 0.3 89
2019-11-28 06:00:00 3.6 15 Nordeste 35 Nordeste 0 842.8 0.2 86
2019-11-28 05:00:00 5.9 15 Oeste 36 Oeste 0 842.7 0.3 68
2019-11-28 04:00:00 2 12 Este 20 Sudoeste 0 842.8 0.1 91
2019-11-28 03:00:00 5.2 11 Oeste 38 Sudoeste 0 842.6 -0.1 65
2019-11-28 02:00:00 5 20 Sudoeste 38 Sudoeste 0 842.4 -0.1 71
2019-11-28 01:00:00 3.4 6 Sudeste 26 Oeste 0 842.7 0.4 82
2019-11-28 00:00:00 4.5 20 Sudoeste 36 Oeste 0.2 842.7 1.1 75
2019-11-27 23:00:00 4.6 15 Sudoeste 37 Sudoeste 0 842.5 0.7 72
2019-11-27 22:00:00 4.1 14 Sudoeste 34 Oeste 0 842.3 0.8 77
2019-11-27 21:00:00 4.4 19 Sudoeste 39 Oeste 0 841.6 0.5 73
2019-11-27 20:00:00 4 11 Sudoeste 19 Sudoeste 0 841.8 0.8 77
2019-11-27 19:00:00 4 14 Sudoeste 41 Oeste 0 841.5 1.1 74
2019-11-27 18:00:00 4.3 21 Oeste 36 Oeste 0 841.1 0.3 70
2019-11-27 17:00:00 3.9 17 Oeste 34 Oeste 0 841 -0.1 75
2019-11-27 16:00:00 4.5 18 Oeste 30 Oeste 0 840.4 -0.9 72
2019-11-27 15:00:00 3.6 7 Sudoeste 22 Oeste 1 840.8 -0.7 79
2019-11-27 14:00:00 3.5 16 Oeste 47 Sudoeste 0.6 841.1 -0.5 79
2019-11-27 06:00:00 4.5 -- -- -- -- 0 838.4 0.7 63
2019-11-27 05:00:00 4.1 22 Sudoeste 47 Sudoeste 0 838.2 0.7 63
2019-11-27 04:00:00 3.5 26 Oeste -- -- 0 838.1 0.7 72
2019-11-27 03:00:00 3.8 -- -- -- -- 0 837.7 1 71
2019-11-27 02:00:00 3.7 29 Oeste 49 Oeste 0 837.5 1.1 68
2019-11-27 01:00:00 3.6 18 Oeste 55 Oeste 0 837.4 1.5 67
2019-11-27 00:00:00 3.8 24 Sudoeste -- -- 0 836.7 1.3 68
2019-11-26 23:00:00 4.4 19 Oeste -- -- 0 836.4 0.4 67
2019-11-26 22:00:00 5.3 -- -- -- -- 0 835.9 0.5 57
2019-11-26 21:00:00 5.5 -- -- -- -- 0.8 835.4 0.2 62
2019-11-26 20:00:00 5.2 -- -- -- -- 1.2 836 0.8 75
2019-11-26 19:00:00 6.2 -- -- -- -- 0.4 835.4 -0.4 76
2019-11-26 18:00:00 7 -- -- -- -- 0.2 835.2 -1.4 64
2019-11-26 17:00:00 7.4 -- -- -- -- 0 835.2 -3.2 58
2019-11-26 16:00:00 7.8 -- -- -- -- 0 835.8 -3.5 60
2019-11-26 15:00:00 8.1 -- -- -- -- 0 836.6 -4.1 61
2019-11-26 14:00:00 8 -- -- -- -- 0 838.4 -2.9 63
2019-11-26 13:00:00 8.2 -- -- -- -- 0 839.3 -2.4 67
2019-11-26 12:00:00 8 18 Sur 48 Sur 0 840.7 -1.5 69
2019-11-26 11:00:00 7.1 10 Sudeste -- -- 0 841.3 -1.3 79
2019-11-26 10:00:00 5.1 -- -- -- -- 0.2 841.7 -1.1 89
2019-11-26 09:00:00 5.4 17 Sudeste -- -- 0.4 842.2 -1 86
2019-11-26 08:00:00 5 -- -- -- -- 0.4 842.6 -0.3 87
2019-11-26 07:00:00 5.5 15 Sur -- -- 0.2 842.8 -0.5 87
2019-11-26 06:00:00 7.2 -- -- -- -- 0 843.2 -0.5 83
2019-11-26 05:00:00 8.5 -- -- -- -- 0 842.9 -0.8 76
2019-11-26 04:00:00 7.5 -- -- -- -- 0 843.3 -1.8 81
2019-11-26 03:00:00 7.5 -- -- -- -- 0 843.7 -1.8 89
2019-11-26 02:00:00 2.5 36 Este -- -- 0 843.7 -2.3 94
2019-11-26 01:00:00 2.4 22 Este 38 Este 0 845.1 -1 94
2019-11-26 00:00:00 2 6 Sudeste 15 Este 0 845.5 -0.7 94
2019-11-25 23:00:00 2.4 9 Este 18 Este 0 846 -0.2 94
2019-11-25 22:00:00 2.6 7 Sudeste 19 Sudeste 0 846.1 0.1 94
2019-11-25 21:00:00 2.9 9 Sudeste 20 Sudeste 0 846.2 0.4 94
2019-11-25 20:00:00 2.5 9 Sudeste -- -- 0 846.2 0.8 93
2019-11-25 19:00:00 2.8 4 Sudeste 13 Este 0 846 0.8 93
2019-11-25 18:00:00 3.2 5 Este 16 Este 0 845.8 0.9 92
2019-11-25 17:00:00 3.8 5 Este -- -- 0 845.4 0.5 89
2019-11-25 16:00:00 4.3 -- -- -- -- 0 845.2 0.2 87
2019-11-25 15:00:00 5.1 0 Calma 13 Nordeste 0 844.9 -0.2 88
2019-11-25 14:00:00 5.3 3 Este 11 Sur 0 844.9 0 91
2019-11-25 13:00:00 4.1 6 Sur -- -- 0 845 0.7 93
2019-11-25 12:00:00 3.4 5 Sur 10 Sur 0 845.1 1.3 94
2019-11-25 11:00:00 3.4 2 Este 6 Sudeste 0 844.9 1.4 94
2019-11-25 10:00:00 2.7 -- -- -- -- 0 844.3 1.3 94
2019-11-25 09:00:00 2.4 3 Nordeste 17 Nordeste 0 843.8 1.3 94
2019-11-25 08:00:00 2.1 2 Sudeste -- -- 0 843.5 1.3 94
2019-11-25 07:00:00 1.8 0 Calma 10 Nordeste 0 843 1 95
2019-11-25 06:00:00 1.9 5 Este 13 Nordeste 0 842.5 0.7 94
2019-11-25 05:00:00 1.7 4 Este 19 Este 0 842.2 0.5 95
2019-11-25 04:00:00 2.1 16 Este -- -- 0 842 0.1 94
2019-11-25 03:00:00 2.1 12 Este -- -- 0 841.8 0.2 94
2019-11-25 02:00:00 4.1 11 Este -- -- 0 841.7 -0.6 89
2019-11-25 01:00:00 5.2 -- -- -- -- 0 841.9 -0.6 88
2019-11-25 00:00:00 5.2 -- -- -- -- 0 841.6 -0.9 93
2019-11-24 23:00:00 1.8 -- -- -- -- 0 842.3 0.4 95
2019-11-24 22:00:00 2.5 10 Sudoeste 36 Este 0 842.5 0.1 94
2019-11-24 21:00:00 1.2 24 Este 38 Sur 0 842.5 -0.1 95
2019-11-24 20:00:00 3 28 Sur -- -- 0.4 841.9 -0.6 94
2019-11-24 19:00:00 0.5 34 Este -- -- 0.2 842.4 -0.8 95
2019-11-24 18:00:00 0.4 30 Este -- -- 0 842.6 -0.9 95
2019-11-24 17:00:00 0.5 -- -- -- -- 0.6 842.5 -1.3 95
2019-11-24 16:00:00 0.1 20 Nordeste 36 Este 0 843.2 -1 95
2019-11-24 15:00:00 0.2 15 Este 26 Este 0 843.5 -1.5 95
2019-11-24 14:00:00 0.1 21 Este -- -- 0 843.8 -1 95
2019-11-24 13:00:00 0 10 Este 19 Este 0 844.2 -0.4 95
2019-11-24 12:00:00 0 7 Este 10 Este 0 845 1 95
2019-11-24 11:00:00 -0.2 6 Este 18 Este 0 844.8 1.3 95
2019-11-24 10:00:00 -1.4 7 Este 9 Este 0 844.6 1.4 95
2019-11-24 09:00:00 -1.9 3 Noroeste 7 Oeste 0 844 0.6 95
2019-11-24 08:00:00 -1.1 3 Este 17 Oeste 0 843.5 0.6 95
2019-11-24 07:00:00 -0.2 9 Oeste -- -- 0 843.2 0.4 95
2019-11-24 06:00:00 -0.1 -- -- -- -- 0 843.4 1.2 95
2019-11-24 05:00:00 -0.1 -- -- -- -- 0 842.9 1 95
2019-11-24 04:00:00 -0.1 -- -- -- -- 0 842.8 0.9 95
2019-11-24 03:00:00 -0.1 -- -- -- -- 0 842.2 0.7 95
2019-11-24 02:00:00 -0.1 -- -- -- -- 0 841.9 0.5 95
2019-11-24 01:00:00 -0.1 -- -- -- -- 0.2 841.9 0.7 95
2019-11-24 00:00:00 -0.1 -- -- -- -- 0 841.5 0.7 95
2019-11-23 23:00:00 -0.2 -- -- -- -- 0 841.4 0.8 95
2019-11-23 22:00:00 -0.1 -- -- -- -- 0 841.2 1.2 95
2019-11-23 21:00:00 -0.3 -- -- -- -- 0 840.8 1.8 95
2019-11-23 20:00:00 -0.1 -- -- -- -- 0 840.6 2.2 95
2019-11-23 19:00:00 0 -- -- -- -- 0 840 2.3 95
2019-11-23 18:00:00 0 -- -- -- -- 0 839 1.9 95
2019-11-23 17:00:00 0 -- -- -- -- 0.2 838.4 1.9 95
2019-11-23 16:00:00 0 -- -- -- -- 0.4 837.7 2.6 95
2019-11-23 15:00:00 0 -- -- -- -- 0.2 837.1 2.7 95
2019-11-23 14:00:00 0 43 Oeste 78 Oeste 1.4 836.5 3.4 95
2019-11-23 13:00:00 0 51 Oeste -- -- 0 835.1 3.4 95
2019-11-23 12:00:00 -0.2 48 Oeste -- -- 0 834.4 3.9 95
2019-11-23 11:00:00 -0.5 -- -- -- -- 0 833.1 3.9 95
2019-11-23 10:00:00 -1.2 -- -- -- -- 0 831.7 4.2 95
2019-11-23 09:00:00 -0.7 -- -- -- -- 0 830.5 4 95
2019-11-23 08:00:00 -1.1 -- -- -- -- 0 829.2 3.3 95
2019-11-23 07:00:00 -1.1 -- -- -- -- 0 827.5 2.4 95
2019-11-23 06:00:00 -1.1 -- -- -- -- 0 826.5 2.6 95
2019-11-23 05:00:00 -0.8 -- -- -- -- 0 825.9 3.2 95
2019-11-23 04:00:00 -0.8 -- -- -- -- 0 825.1 2.9 95
2019-11-23 03:00:00 -0.6 -- -- -- -- 0.2 823.9 2.3 95
2019-11-23 02:00:00 0.2 40 Oeste 61 Oeste 0.2 822.7 1.5 94
2019-11-23 01:00:00 1.2 18 Oeste 40 Oeste 1.2 822.2 1 89
2019-11-23 00:00:00 2.7 22 Oeste 42 Oeste 0 821.6 0.6 78
2019-11-22 23:00:00 2.6 22 Oeste 43 Sudoeste 0.2 821.2 0.1 78
2019-11-22 22:00:00 2.7 20 Sudoeste 36 Oeste 0 821.2 0.3 79
2019-11-22 21:00:00 2.4 12 Sudoeste 31 Sudoeste 0.6 821 0 80
2019-11-22 20:00:00 2.4 8 Sur 34 Oeste 0.4 821.1 0.1 79
2019-11-22 19:00:00 3 15 Sudoeste 46 Oeste 0 820.9 -0.3 77
2019-11-22 18:00:00 3.2 15 Sudoeste 39 Sudoeste 0 821 0.4 74
2019-11-22 17:00:00 4 16 Oeste 46 Noroeste 0 821 -0.1 67
2019-11-22 16:00:00 4.6 23 Oeste 56 Sur 0 821.2 -0.7 66
2019-11-22 15:00:00 5.9 13 Sudoeste 39 Sudoeste 0.6 820.6 -2.5 75
2019-11-22 14:00:00 5.5 12 Oeste 50 Sur 0.4 821.1 -3.8 81
2019-11-22 13:00:00 5.1 23 Sur 63 Sur 1.2 821.9 -3 81
2019-11-22 12:00:00 3.3 22 Sudeste 58 Sur 3.6 823.1 -3.5 85
2019-11-22 11:00:00 2.4 15 Sur -- -- 3.4 824.9 -2.9 85
2019-11-22 10:00:00 2.4 -- -- -- -- 3.4 824.9 -3.6 85
2019-11-22 09:00:00 0.5 -- -- -- -- 0.6 826.6 -2.9 93
2019-11-22 08:00:00 1.5 -- -- -- -- 1.2 827.8 -3.2 84
2019-11-22 07:00:00 1.8 -- -- -- -- 1.6 828.5 -3.4 83
2019-11-22 06:00:00 1.5 -- -- -- -- 0.8 829.5 -3.7 85
2019-11-22 05:00:00 1.4 -- -- -- -- 0 831 -3 83
2019-11-22 04:00:00 1.1 -- -- -- -- 0.2 831.9 -2.6 83
2019-11-22 03:00:00 1.5 -- -- -- -- 0 833.2 -2.1 78
2019-11-22 02:00:00 1.2 -- -- -- -- 0 834 -2.1 75
2019-11-22 01:00:00 0.9 -- -- -- -- 0 834.5 -1.8 71
2019-11-22 00:00:00 1 -- -- -- -- 0 835.3 -1.1 75
2019-11-21 23:00:00 0.8 13 Este -- -- 0 836.1 -0.7 80
2019-11-21 22:00:00 1.4 -- -- -- -- 0 836.3 -1 72
2019-11-21 21:00:00 1.4 20 Sur 39 Sur 0 836.4 -0.7 68
2019-11-21 20:00:00 1.2 14 Sudoeste 38 Sur 0 836.8 -0.2 68
2019-11-21 19:00:00 0.9 22 Sudoeste 37 Sudoeste 0 837.3 0.3 64
2019-11-21 18:00:00 0.8 19 Sudoeste 34 Sudoeste 0 837.1 0.3 64
2019-11-21 17:00:00 0.7 14 Sudoeste 25 Sur 0 837 0.2 70
2019-11-21 16:00:00 1.1 14 Sudoeste 27 Sudoeste 0 837 0.2 65
2019-11-21 15:00:00 1.7 15 Sur 29 Sudoeste 0 836.8 -0.4 66
2019-11-21 14:00:00 2.6 13 Sudoeste 24 Sudoeste 0.2 836.8 -0.3 64
2019-11-21 13:00:00 2.6 10 Sur 21 Sudoeste 0.2 836.8 -0.1 69
2019-11-21 12:00:00 1.5 8 Sur 21 Nordeste 0.4 837.2 0.6 72
2019-11-21 11:00:00 0.1 9 Este 19 Sur 0 837.1 0.9 82
2019-11-21 10:00:00 -0.7 5 Oeste 20 Este 0 836.9 0.8 80
2019-11-21 09:00:00 -1.5 14 Este 34 Sudoeste 0 836.6 0.8 90
2019-11-21 08:00:00 -- -- -- -- -- -- -- -- --
2019-11-21 07:00:00 -- -- -- -- -- -- -- -- --
2019-11-21 06:00:00 -- -- -- -- -- -- -- -- --
2019-11-21 05:00:00 -- -- -- -- -- -- -- -- --
2019-11-21 04:00:00 -- -- -- -- -- -- -- -- --
2019-11-21 03:00:00 -- -- -- -- -- -- -- -- --
2019-11-21 02:00:00 -- -- -- -- -- -- -- -- --
2019-11-21 01:00:00 -- -- -- -- -- -- -- -- --
2019-11-21 00:00:00 -- -- -- -- -- -- -- -- --
2019-11-20 23:00:00 -- -- -- -- -- -- -- -- --
2019-11-20 22:00:00 -- -- -- -- -- -- -- -- --
2019-11-20 21:00:00 0.8 21 Sur 33 Sur 0.2 836.8 0.1 95
2019-11-20 20:00:00 0.8 9 Sudoeste 33 Sur 0 837 0.1 94
2019-11-20 19:00:00 0.9 21 Sur 39 Sur 0.2 836.6 -0.4 94
2019-11-20 18:00:00 1 14 Sur 33 Sur 0 836.7 -0.6 94
2019-11-20 17:00:00 1.5 21 Sur 32 Sur 0.4 836.9 -1 92
2019-11-20 16:00:00 1.3 10 Este 23 Sudeste 0.6 837 -1.5 --
2019-11-20 15:00:00 1.8 5 Este 22 Sur 0.6 837.3 -- --
2019-11-20 14:00:00 2 9 Sur -- -- -- 837.9 -- --
2019-11-20 13:00:00 1.7 9 Este -- -- -- 838.5 -- --
2019-11-20 12:00:00 -- -- -- -- -- -- -- -- --
2019-11-20 11:00:00 -- -- -- -- -- -- -- -- --
2019-11-20 10:00:00 -- -- -- -- -- -- -- -- --
2019-11-20 09:00:00 -- -- -- -- -- -- -- -- --
2019-11-20 08:00:00 -- -- -- -- -- -- -- -- --
2019-11-20 07:00:00 -- -- -- -- -- -- -- -- --
2019-11-20 06:00:00 -- -- -- -- -- -- -- -- --
2019-11-20 05:00:00 -- -- -- -- -- -- -- -- --
2019-11-20 04:00:00 -- -- -- -- -- -- -- -- --
2019-11-20 03:00:00 -- -- -- -- -- -- -- -- --
2019-11-20 02:00:00 -- -- -- -- -- -- -- -- --
2019-11-20 01:00:00 -- -- -- -- -- -- -- -- --
2019-11-20 00:00:00 -- -- -- -- -- -- -- -- --
2019-11-19 23:00:00 -- -- -- -- -- -- -- -- --
2019-11-19 22:00:00 -- -- -- -- -- -- -- -- --
2019-11-19 21:00:00 -- -- -- -- -- -- -- -- --
2019-11-19 20:00:00 -- -- -- -- -- -- -- -- --
2019-11-19 19:00:00 -- -- -- -- -- -- -- -- --
2019-11-19 18:00:00 -- -- -- -- -- -- -- -- --
2019-11-19 17:00:00 -- -- -- -- -- -- -- -- --
2019-11-19 16:00:00 -- -- -- -- -- -- -- -- --
2019-11-19 15:00:00 -- -- -- -- -- -- -- -- --
2019-11-19 14:00:00 -- -- -- -- -- -- -- -- --
2019-11-19 13:00:00 -- -- -- -- -- -- -- -- --
2019-11-19 12:00:00 -- -- -- -- -- -- -- -- --
2019-11-19 11:00:00 -- -- -- -- -- -- -- -- --
2019-11-19 10:00:00 -- -- -- -- -- -- -- -- --
2019-11-19 09:00:00 -- -- -- -- -- -- -- -- --
2019-11-19 08:00:00 -- -- -- -- -- -- -- -- --
2019-11-19 07:00:00 -- -- -- -- -- -- -- -- --
2019-11-19 06:00:00 -- -- -- -- -- -- -- -- --
2019-11-19 05:00:00 -- -- -- -- -- -- -- -- --
2019-11-19 04:00:00 -- -- -- -- -- -- -- -- --
2019-11-19 03:00:00 -- -- -- -- -- -- -- -- --
2019-11-19 02:00:00 -- -- -- -- -- -- -- -- --
2019-11-19 01:00:00 -- -- -- -- -- -- -- -- --
2019-11-19 00:00:00 -- -- -- -- -- -- -- -- --
2019-11-18 23:00:00 -- -- -- -- -- -- -- -- --
2019-11-18 22:00:00 -- -- -- -- -- -- -- -- --
2019-11-18 21:00:00 -- -- -- -- -- -- -- -- --
2019-11-18 20:00:00 -- -- -- -- -- -- -- -- --
2019-11-18 19:00:00 -- -- -- -- -- -- -- -- --
2019-11-18 18:00:00 -- -- -- -- -- -- -- -- --
2019-11-18 17:00:00 -- -- -- -- -- -- -- -- --
2019-11-18 16:00:00 -- -- -- -- -- -- -- -- --
2019-11-18 15:00:00 -- -- -- -- -- -- -- -- --
2019-11-18 14:00:00 -0.1 -- -- -- -- -- 847.2 -- --
2019-11-18 13:00:00 -- -- -- -- -- -- -- -- --
2019-11-18 12:00:00 -- -- -- -- -- -- -- -- --
2019-11-18 11:00:00 -- -- -- -- -- -- -- -- --
2019-11-18 10:00:00 -- -- -- -- -- -- -- -- --
2019-11-18 09:00:00 -- -- -- -- -- -- -- -- --
2019-11-18 08:00:00 -- -- -- -- -- -- -- -- --
2019-11-18 07:00:00 -- -- -- -- -- -- -- -- --
2019-11-18 06:00:00 -- -- -- -- -- -- -- -- --
2019-11-18 05:00:00 -- -- -- -- -- -- -- -- --
2019-11-18 04:00:00 -- -- -- -- -- -- -- -- --
2019-11-18 03:00:00 -- -- -- -- -- -- -- -- --
2019-11-18 02:00:00 -- -- -- -- -- -- -- -- --
2019-11-18 01:00:00 -- -- -- -- -- -- -- -- --
2019-11-18 00:00:00 -- -- -- -- -- -- -- -- --
2019-11-17 23:00:00 -- -- -- -- -- -- -- -- --
2019-11-17 22:00:00 -- -- -- -- -- -- -- -- --
2019-11-17 21:00:00 -- -- -- -- -- -- -- -- --
2019-11-17 20:00:00 -- -- -- -- -- -- -- -- --
2019-11-17 19:00:00 -- -- -- -- -- -- -- -- --
2019-11-17 18:00:00 -- -- -- -- -- -- -- -- --
2019-11-17 17:00:00 -- -- -- -- -- -- -- -- --
2019-11-17 16:00:00 -- -- -- -- -- -- -- -- --
2019-11-17 15:00:00 -- -- -- -- -- -- -- -- --
2019-11-17 14:00:00 -- -- -- -- -- -- -- -- --
2019-11-17 13:00:00 -- -- -- -- -- -- -- -- --
2019-11-17 12:00:00 -- -- -- -- -- -- -- -- --
2019-11-17 11:00:00 -- -- -- -- -- -- -- -- --
2019-11-17 10:00:00 -- -- -- -- -- -- -- -- --
2019-11-17 09:00:00 -- -- -- -- -- -- -- -- --
2019-11-17 08:00:00 -- -- -- -- -- -- -- -- --
2019-11-17 07:00:00 -- -- -- -- -- -- -- -- --
2019-11-17 06:00:00 -- -- -- -- -- -- -- -- --
2019-11-17 05:00:00 -- -- -- -- -- -- -- -- --
2019-11-17 04:00:00 -- -- -- -- -- -- -- -- --
2019-11-17 03:00:00 -- -- -- -- -- -- -- -- --
2019-11-17 02:00:00 -- -- -- -- -- -- -- -- --
2019-11-17 01:00:00 -- -- -- -- -- -- -- -- --
2019-11-17 00:00:00 -- -- -- -- -- -- -- -- --
2019-11-16 23:00:00 -- -- -- -- -- -- -- -- --
2019-11-16 22:00:00 -- -- -- -- -- -- -- -- --
2019-11-16 21:00:00 -- -- -- -- -- -- -- -- --
2019-11-16 20:00:00 -- -- -- -- -- -- -- -- --
2019-11-16 19:00:00 -- -- -- -- -- -- -- -- --
2019-11-16 18:00:00 -- -- -- -- -- -- -- -- --
2019-11-16 17:00:00 -- -- -- -- -- -- -- -- --
2019-11-16 16:00:00 -- -- -- -- -- -- -- -- --
2019-11-16 15:00:00 -- -- -- -- -- -- -- -- --
2019-11-16 14:00:00 -1.1 33 Oeste 55 Oeste 0 843.6 0.1 94
2019-11-16 13:00:00 -1.1 35 Oeste 61 Oeste 0 843.7 -- 94
2019-11-16 12:00:00 -1.3 44 Oeste 66 Oeste 0 843.7 -- 94
2019-11-16 11:00:00 -1.5 44 Oeste -- -- -- 843.5 -- 94
2019-11-16 10:00:00 -- -- -- -- -- -- -- -- --
2019-11-16 09:00:00 -- -- -- -- -- -- -- -- --
2019-11-16 08:00:00 -- -- -- -- -- -- -- -- --
2019-11-16 07:00:00 -- -- -- -- -- -- -- -- --
2019-11-16 06:00:00 -- -- -- -- -- -- -- -- --
2019-11-16 05:00:00 -- -- -- -- -- -- -- -- --
2019-11-16 04:00:00 -- -- -- -- -- -- -- -- --
2019-11-16 03:00:00 -- -- -- -- -- -- -- -- --
2019-11-16 02:00:00 -- -- -- -- -- -- -- -- --
2019-11-16 01:00:00 -- -- -- -- -- -- -- -- --
2019-11-16 00:00:00 -2.8 29 Oeste 45 Oeste 0 839.8 1.4 94
2019-11-15 23:00:00 -3 23 Oeste 42 Oeste 0 839.2 1.1 94
2019-11-15 22:00:00 -2.9 18 Oeste 44 Oeste 0 838.9 1.4 94
2019-11-15 21:00:00 -3.1 26 Oeste 46 Oeste 0 838.4 1.7 94
2019-11-15 20:00:00 -2.9 19 Oeste 53 Oeste 0 838.1 1.6 94
2019-11-15 19:00:00 -3.1 30 Oeste 55 Oeste 0 837.5 1.6 94
2019-11-15 18:00:00 -2.7 32 Oeste 51 Oeste 0 836.7 1.2 94
2019-11-15 17:00:00 -2.6 30 Noroeste 56 Oeste 0 836.5 0.9 94
2019-11-15 16:00:00 -2.3 27 Oeste 64 Oeste 0 835.9 0.3 94
2019-11-15 15:00:00 -2.5 37 Oeste 64 Oeste 0 835.5 -0.8 94
2019-11-15 14:00:00 -1.7 36 Oeste 62 Oeste 0 835.6 0 94
2019-11-15 13:00:00 -1.7 38 Oeste 70 Oeste 0 835.6 -0.5 94
2019-11-15 12:00:00 -2.4 35 Oeste 72 Oeste 0 836.3 0.7 94
2019-11-15 11:00:00 -1.8 44 Oeste 81 Oeste 0 835.6 0.5 94
2019-11-15 10:00:00 -2.6 54 Oeste -- -- 0 836.1 1.3 94
2019-11-15 09:00:00 -2.5 44 Oeste -- -- 0 835.6 1.4 94
2019-11-15 08:00:00 -2.3 72 Oeste -- -- 0 835.1 0.9 94
2019-11-15 07:00:00 -2.2 -- -- -- -- 0 834.8 0.9 94
2019-11-15 06:00:00 -2.5 -- -- -- -- 0 834.2 0 94
2019-11-15 05:00:00 -2.8 -- -- -- -- 0 834.2 0.3 94
2019-11-15 04:00:00 -2.9 28 Oeste 66 Oeste 0 833.9 0 94
2019-11-15 03:00:00 -2.7 27 Oeste -- -- 0 834.2 0.4 94
2019-11-15 02:00:00 -2.3 32 Oeste 66 Oeste 0 833.9 0.4 94
2019-11-15 01:00:00 -2.5 27 Oeste 71 Oeste 0 833.9 0.9 94
2019-11-15 00:00:00 -2.4 33 Oeste 60 Oeste 0 833.8 1.4 94
2019-11-14 23:00:00 -2.1 23 Oeste 48 Oeste 0 833.5 1.5 94
2019-11-14 22:00:00 -2.3 29 Oeste 56 Oeste 0 833 1.7 94
2019-11-14 21:00:00 -2.2 18 Oeste 42 Oeste 0 832.4 2 94
2019-11-14 20:00:00 -2.4 20 Oeste 44 Oeste 0 832 2.2 94
2019-11-14 19:00:00 -2.8 25 Oeste 43 Oeste 0 831.3 1.7 94
2019-11-14 18:00:00 -2.4 28 Oeste 48 Oeste 0 830.4 1 94
2019-11-14 17:00:00 -2.6 19 Oeste 47 Oeste 0 829.8 0.4 93
2019-11-14 16:00:00 -2.4 32 Oeste 58 Oeste 0 829.6 -0.5 93
2019-11-14 15:00:00 -1.8 18 Oeste 26 Oeste 0 829.4 -1.4 92
2019-11-14 14:00:00 -0.9 7 Este 12 Este 0 829.4 -2.2 90
2019-11-14 13:00:00 -1.7 6 Nordeste 21 Sur 0 830.1 -2.4 91
2019-11-14 12:00:00 -2 13 Sur 24 Sur 0 830.8 -1.7 87
2019-11-14 11:00:00 -2.5 10 Sudoeste 22 Sudoeste 0 831.6 -2.3 89
2019-11-14 10:00:00 -3.6 12 Oeste 30 Oeste 0 832.5 -1.6 90
2019-11-14 09:00:00 -4 20 Oeste 33 Oeste 0 832.5 -2 92
2019-11-14 08:00:00 -3.8 21 Noroeste 40 Oeste 0 833.9 -0.8 92
2019-11-14 07:00:00 -3.6 22 Oeste 46 Noroeste 0 834.1 -0.8 92
2019-11-14 06:00:00 -3.5 31 Oeste 66 Noroeste 0 834.5 -1.2 92
2019-11-14 05:00:00 -3.2 42 Noroeste 77 Oeste 0 834.7 -1.7 93
2019-11-14 04:00:00 -2.4 50 Oeste 83 Oeste 0.2 834.9 -1.5 94
2019-11-14 03:00:00 -1.5 40 Oeste 58 Oeste 0 835.7 -1.4 95
2019-11-14 02:00:00 -0.9 32 Oeste 49 Oeste 0 836.4 -1.7 94
2019-11-14 01:00:00 0.2 16 Oeste 33 Oeste 0.2 836.4 -2.4 93
2019-11-14 00:00:00 0.9 22 Oeste 33 Oeste 0.2 837.1 -2.3 90
2019-11-13 23:00:00 2.6 12 Oeste 29 Oeste 0 838.1 -2.9 76
2019-11-13 22:00:00 0.8 4 Este 9 Este 0 838.8 -2.7 85
2019-11-13 21:00:00 1.3 6 Este 13 Este 0 839.4 -2.6 84
2019-11-13 20:00:00 2 4 Sudeste 28 Oeste 0 841 -1.4 78
2019-11-13 19:00:00 3.6 14 Oeste 27 Sudoeste 0 841.5 -1.7 68
2019-11-13 18:00:00 4.3 16 Oeste 43 Oeste 0 842 -2 64
2019-11-13 17:00:00 4.6 19 Sudoeste 40 Oeste 0 842.4 -2.1 66
2019-11-13 16:00:00 3.3 5 Noroeste 18 Sudoeste 0 843.2 -1.7 92
2019-11-13 15:00:00 2.4 8 Oeste 24 Oeste 0.2 844 -0.8 94
2019-11-13 14:00:00 2 16 Oeste 31 Noroeste 0 844.5 0.1 94
2019-11-13 13:00:00 2.3 19 Oeste 39 Oeste 0 844.9 0.5 93
2019-11-13 12:00:00 2.2 26 Oeste 41 Oeste 0 844.8 1.1 93
2019-11-13 11:00:00 2.2 27 Oeste 51 Oeste 0.8 844.4 1.8 94
2019-11-13 10:00:00 2.3 21 Noroeste 46 Noroeste 1 844.4 2.4 94
2019-11-13 09:00:00 2.3 12 Noroeste 30 Oeste 0.6 843.7 2.6 94
2019-11-13 08:00:00 2.1 13 Noroeste 26 Oeste 1.6 842.6 2.6 95
2019-11-13 07:00:00 2 15 Noroeste 44 Noroeste 1.8 842 2.6 94
2019-11-13 06:00:00 2.3 19 Noroeste 45 Oeste 1.8 841.1 2.7 94
2019-11-13 05:00:00 3.1 18 Noroeste 44 Norte 0.8 840 1.8 94
2019-11-13 04:00:00 3.2 12 Noroeste 50 Oeste 1.4 839.4 1 94
2019-11-13 03:00:00 4.8 35 Oeste 55 Oeste 2.4 838.4 -0.5 94
2019-11-13 02:00:00 5.3 25 Oeste 47 Oeste 6.2 838.2 -1 94
2019-11-13 01:00:00 1.6 8 Este 13 Este 6.4 838.4 -1.4 95
2019-11-13 00:00:00 1.6 6 Sudeste 10 Sudeste 6.4 838.9 -1.3 95
2019-11-12 23:00:00 1.6 3 Sudeste 8 Este 5.2 839.2 -1.4 95
2019-11-12 22:00:00 1.7 5 Sudeste 18 Este 4.6 839.8 -1.1 95
2019-11-12 21:00:00 1.7 14 Este 21 Este 4.2 840.2 -1.3 95
2019-11-12 20:00:00 1.5 9 Este 23 Este 2.8 840.6 -1.6 95
2019-11-12 19:00:00 1.4 18 Este 28 Este 2.4 840.9 -2 95
2019-11-12 18:00:00 1.5 19 Este 28 Este 2.2 841.5 -2.5 95
2019-11-12 17:00:00 1.8 12 Nordeste 22 Este 1.4 842.2 -2.8 95
2019-11-12 16:00:00 1.9 10 Este 15 Este 0.4 842.9 -3.1 94
2019-11-12 15:00:00 2.2 10 Este 15 Este 1.2 844 -2.6 94
2019-11-12 14:00:00 3.2 9 Oeste 21 Noroeste 0 845 -2 93
2019-11-12 13:00:00 2.6 11 Noroeste 21 Oeste 0 846 -1.1 93
2019-11-12 12:00:00 1.8 15 Oeste 27 Oeste 0.2 846.6 -0.8 94
2019-11-12 11:00:00 0.8 17 Oeste 26 Oeste 0.2 847 0 94
2019-11-12 10:00:00 0.2 15 Oeste 27 Oeste 0 847.1 -0.1 95
2019-11-12 09:00:00 -0.2 13 Oeste 31 Oeste 0 847.4 0 95
2019-11-12 08:00:00 -0.1 22 Oeste 41 Oeste 0 847 -0.8 95
2019-11-12 07:00:00 -0.2 24 Oeste 39 Oeste 0 847.2 -0.6 95
2019-11-12 06:00:00 0 19 Oeste 37 Oeste 0 847.4 -1 95
2019-11-12 05:00:00 0 21 Oeste 43 Oeste 0 847.8 -1 95
2019-11-12 04:00:00 -0.2 26 Oeste 42 Oeste 0 847.8 -1.2 95
2019-11-12 03:00:00 -0.4 27 Oeste 47 Oeste 0 848.4 -1 95
2019-11-12 02:00:00 -0.5 33 Oeste 50 Oeste 0 848.8 -0.8 95
2019-11-12 01:00:00 -0.3 38 Oeste 50 Oeste 0 849 -0.9 95
2019-11-12 00:00:00 -0.1 29 Oeste 51 Oeste 0 849.4 -0.4 95
2019-11-11 23:00:00 -0.1 22 Oeste 48 Oeste 0 849.6 -0.3 95
2019-11-11 22:00:00 0 27 Oeste 43 Noroeste 0 849.9 0.1 94
2019-11-11 21:00:00 0.1 23 Oeste 50 Oeste 0 849.8 0.5 94
2019-11-11 20:00:00 0.1 29 Oeste 53 Oeste 0 849.9 0.8 93
2019-11-11 19:00:00 0.1 23 Noroeste 53 Noroeste 0 849.8 0.9 92
2019-11-11 18:00:00 0.1 21 Oeste 51 Noroeste 0 849.3 0.5 94
2019-11-11 17:00:00 0.2 29 Noroeste 58 Noroeste 0.4 849.1 0.4 94
2019-11-11 16:00:00 0.9 30 Oeste 66 Oeste 0.2 848.9 0.1 94
2019-11-11 15:00:00 0.7 39 Oeste 67 Oeste 0.8 848.8 -0.4 93
2019-11-11 14:00:00 1.4 35 Noroeste 63 Noroeste 1.2 848.7 0.8 94
2019-11-11 13:00:00 1.7 28 Oeste 68 Oeste 0.6 848.8 0.8 94
2019-11-11 12:00:00 2.7 23 Noroeste 72 Oeste 1.2 849.2 1.7 93
2019-11-11 11:00:00 3.5 36 Oeste 84 Oeste 2.2 847.9 0.8 93
2019-11-11 10:00:00 4.4 37 Oeste 68 Oeste 1.4 848 1.2 94
2019-11-11 09:00:00 5.3 40 Oeste 67 Oeste 1.8 847.5 0.5 94
2019-11-11 08:00:00 5.4 36 Oeste 64 Oeste 1.2 847.1 -0.2 94
2019-11-11 07:00:00 5.2 35 Oeste 56 Oeste 1 846.8 -0.9 94
2019-11-11 06:00:00 4.3 32 Oeste 50 Oeste 0.4 847 -1 94
2019-11-11 05:00:00 3.6 30 Oeste 51 Oeste 2.2 847.3 -0.8 94
2019-11-11 04:00:00 2.1 27 Oeste 40 Oeste 2.6 847.7 -0.3 94
2019-11-11 03:00:00 0.4 24 Oeste 48 Oeste 0.6 848 -1 95
2019-11-11 02:00:00 0 32 Oeste 41 Oeste 0 848.1 -0.4 95
2019-11-11 01:00:00 0 29 Oeste 44 Oeste 0 848 -0.3 95
2019-11-11 00:00:00 -0.1 19 Oeste 33 Oeste 0 849 1.1 95
2019-11-10 23:00:00 -0.1 25 Oeste 48 Oeste 0 848.5 0.1 95
2019-11-10 22:00:00 -0.1 29 Oeste 52 Oeste 0 848.3 -0.2 95
2019-11-10 21:00:00 -0.1 19 Oeste 51 Oeste 0 847.9 0.3 95
2019-11-10 20:00:00 -0.3 31 Oeste 49 Oeste 0 848.4 0.7 95
2019-11-10 19:00:00 -0.4 30 Oeste 73 Oeste 0 848.5 1.2 95
2019-11-10 18:00:00 -0.5 37 Oeste 80 Oeste 0 847.6 0.6 95
2019-11-10 17:00:00 -0.4 39 Oeste 75 Oeste 0 847.7 0.6 95
2019-11-10 16:00:00 -0.4 43 Oeste 67 Oeste 0 847.3 0.3 95
2019-11-10 15:00:00 -0.6 28 Noroeste 73 Oeste 0 847 -0.4 95
2019-11-10 14:00:00 -0.7 23 Oeste 60 Oeste 0 847.1 0.5 95
2019-11-10 13:00:00 -0.5 22 Oeste 60 Sudoeste 0 847 1.1 95
2019-11-10 12:00:00 -0.7 20 Noroeste 70 Oeste 0 847.4 1.2 95
2019-11-10 11:00:00 -0.4 28 Oeste 121 Oeste 0 846.6 0.1 95
2019-11-10 10:00:00 -0.6 42 Oeste 85 Oeste 0 845.9 -1.1 95
2019-11-10 09:00:00 -0.6 49 Oeste 94 Oeste 0 846.2 -0.5 95
2019-11-10 08:00:00 -1.2 40 Oeste 85 Oeste 0 846.5 -0.4 95
2019-11-10 07:00:00 -1.6 30 Oeste 75 Oeste 0 847 -0.1 95
2019-11-10 06:00:00 -1.3 35 Oeste 71 Oeste 0 846.7 -1 95
2019-11-10 05:00:00 -1.7 38 Oeste 73 Oeste 0 846.9 -1.5 95
2019-11-10 04:00:00 -1.2 36 Oeste 68 Oeste 0 847.1 -1.2 95
2019-11-10 03:00:00 -1.4 40 Oeste 71 Oeste 0 847.7 -0.2 95
2019-11-10 02:00:00 -1.7 39 Oeste 75 Oeste 0 848.4 0.7 95
2019-11-10 01:00:00 -1.7 23 Noroeste 71 Oeste 0 848.3 1 95
2019-11-10 00:00:00 -0.9 36 Oeste 75 Noroeste 0 847.9 0.7 95
2019-11-09 23:00:00 -0.8 36 Oeste 72 Oeste 0 847.7 0.3 95
2019-11-09 22:00:00 -0.2 41 Oeste 100 Oeste 0 847.3 0.2 95
2019-11-09 21:00:00 0 41 Oeste 89 Oeste 0 847.2 0.2 95
2019-11-09 20:00:00 0.4 52 Oeste 85 Oeste 1.4 847.4 0.2 93
2019-11-09 19:00:00 1.6 33 Oeste 54 Noroeste 1.4 847.1 -0.1 89
2019-11-09 18:00:00 2.2 27 Noroeste 63 Noroeste 0 847 -0.3 86
2019-11-09 17:00:00 2.7 44 Oeste 72 Noroeste 0 847.2 -0.4 85
2019-11-09 16:00:00 3.8 31 Oeste 59 Oeste 0 847.2 -1 83
2019-11-09 15:00:00 4.6 33 Oeste 62 Oeste 0 847.3 -1.2 78
2019-11-09 14:00:00 4.9 38 Oeste 70 Oeste 0.2 847.6 -1.1 76
2019-11-09 13:00:00 4.6 28 Oeste 44 Oeste 0.8 848.2 -0.7 85
2019-11-09 12:00:00 3.7 26 Noroeste 42 Oeste 0.8 848.5 -0.3 94
2019-11-09 11:00:00 0 12 Este 20 Este 0 848.7 -0.2 95
2019-11-09 10:00:00 -0.3 16 Este 26 Este 0 848.9 -0.2 95
2019-11-09 09:00:00 -0.5 19 Este 28 Este 0 848.8 -0.5 95
2019-11-09 08:00:00 -0.3 13 Este 18 Este 0 848.9 -0.1 95
2019-11-09 07:00:00 -0.1 12 Noroeste 25 Oeste 0 849.1 -0.4 95
2019-11-09 06:00:00 0 23 Oeste 40 Oeste 0 849.3 0.2 95
2019-11-09 05:00:00 -0.2 24 Oeste 37 Oeste 0 849 -0.5 95
2019-11-09 04:00:00 -0.2 24 Oeste 45 Oeste 0 849.5 -0.5 95
2019-11-09 03:00:00 -0.2 30 Oeste 50 Noroeste 0 849.1 -1 95
2019-11-09 02:00:00 -0.2 27 Oeste 53 Oeste 0 849.5 -0.1 95
2019-11-09 01:00:00 -0.3 36 Oeste 65 Oeste 0 850 0.4 95
2019-11-09 00:00:00 -0.2 40 Oeste 59 Oeste 0 850.1 0.8 95
2019-11-08 23:00:00 -0.3 37 Oeste 58 Oeste 0 849.6 0.6 95
2019-11-08 22:00:00 -0.4 36 Oeste 56 Oeste 0 849.6 1 95
2019-11-08 21:00:00 -0.6 36 Oeste 58 Oeste 0 849.3 0.8 95
2019-11-08 20:00:00 -0.9 34 Oeste 53 Oeste 0 849 1.3 95
2019-11-08 19:00:00 -0.8 34 Oeste 56 Oeste 0 848.6 0.9 95
2019-11-08 18:00:00 -1.2 31 Oeste 61 Oeste 0 848.5 1.5 95
2019-11-08 17:00:00 -0.8 41 Oeste 72 Oeste 0 847.7 1.1 95
2019-11-08 16:00:00 -0.9 32 Oeste 59 Oeste 0 847.7 1.6 95
2019-11-08 15:00:00 -0.3 32 Oeste 71 Oeste 0 847 1.4 95
2019-11-08 14:00:00 -0.6 45 Oeste 81 Oeste 0 846.6 1.4 95
2019-11-08 13:00:00 -0.6 47 Oeste 84 Oeste 0 846.1 1.9 95
2019-11-08 12:00:00 -0.8 36 Oeste 82 Oeste 0 845.6 1.6 94
2019-11-08 11:00:00 -0.9 41 Oeste 93 Oeste 0 845.2 2.1 95
2019-11-08 10:00:00 -1.3 33 Oeste 68 Oeste 0 844.2 1.5 95
2019-11-08 09:00:00 -1.7 39 Oeste 58 Oeste 0 844 1.7 95
2019-11-08 08:00:00 -1.4 36 Oeste 66 Oeste 0 843.1 1.7 95
2019-11-08 07:00:00 -1.5 35 Oeste -- -- 0 842.7 1.3 95
2019-11-08 06:00:00 -1.7 36 Oeste 61 Oeste 0 842.3 1.3 94
2019-11-08 05:00:00 -1.7 31 Oeste -- -- 0 841.4 0.6 94
2019-11-08 04:00:00 -2 30 Oeste -- -- 0 841.4 0.8 94
2019-11-08 03:00:00 -2.4 -- -- -- -- 0 841 0.5 94
2019-11-08 02:00:00 -2.1 29 Oeste 47 Noroeste 0 840.8 0.3 94
2019-11-08 01:00:00 -2.2 28 Oeste 40 Oeste 0 840.6 0 94
2019-11-08 00:00:00 -2.6 24 Oeste 49 Noroeste 0 840.5 -0.2 93
2019-11-07 23:00:00 -2.7 26 Noroeste 55 Noroeste 0 840.5 -0.3 92
2019-11-07 22:00:00 -3 29 Oeste 52 Oeste 0 840.6 -0.2 93
2019-11-07 21:00:00 -2.8 24 Oeste 45 Oeste 0 840.7 0 91
2019-11-07 20:00:00 -2.6 23 Oeste 44 Oeste 0 840.8 0.3 94
2019-11-07 19:00:00 -2.7 27 Oeste 50 Oeste 0 840.8 -0.3 94
2019-11-07 18:00:00 -2.1 27 Oeste 49 Oeste 0 840.7 -0.3 93
2019-11-07 17:00:00 -1.4 20 Oeste 46 Noroeste 0 840.5 -1.2 90
2019-11-07 16:00:00 -1.6 17 Oeste 47 Noroeste 0.2 841.1 -0.9 92
2019-11-07 15:00:00 -0.9 23 Oeste 48 Oeste 0 841 -1.3 90
2019-11-07 14:00:00 -1 27 Oeste 54 Oeste 0 841.7 -0.6 93
2019-11-07 13:00:00 -0.4 13 Oeste 27 Oeste 0 842 -0.3 93
2019-11-07 12:00:00 -0.2 23 Oeste 32 Oeste 0 842.3 0.2 92
2019-11-07 11:00:00 -0.4 28 Oeste 42 Noroeste 0 842.3 0.6 92
2019-11-07 10:00:00 -0.4 18 Oeste 44 Oeste 0 842.3 0.6 93
2019-11-07 09:00:00 -0.7 26 Oeste 53 Oeste 0 842.1 0.5 93
2019-11-07 08:00:00 -0.6 24 Oeste 49 Oeste 0 841.7 0 95
2019-11-07 07:00:00 -0.3 29 Oeste 48 Oeste 0 841.7 -0.6 95
2019-11-07 06:00:00 0.3 30 Oeste 52 Oeste 0 841.6 -0.8 92
2019-11-07 05:00:00 0.4 26 Oeste 55 Oeste 0 841.7 -0.8 92
2019-11-07 04:00:00 0.8 21 Noroeste 49 Noroeste 0 842.3 -0.2 93
2019-11-07 03:00:00 1 32 Noroeste 61 Oeste 0.6 842.4 -0.3 94
2019-11-07 02:00:00 1.5 37 Oeste 55 Oeste 0.2 842.5 -0.1 95
2019-11-07 01:00:00 3.2 32 Oeste 52 Oeste 1 842.5 -0.5 94
2019-11-07 00:00:00 4.3 31 Oeste 52 Oeste 2 842.7 -0.5 94
2019-11-06 23:00:00 5.5 24 Oeste 41 Oeste 0.6 842.6 -1.2 94
2019-11-06 22:00:00 4.2 11 Este 26 Este 1.2 843 -0.9 94
2019-11-06 21:00:00 3.9 12 Este 17 Este 0.8 843.2 -0.7 94
2019-11-06 20:00:00 3.8 8 Nordeste 16 Nordeste 1.2 843.8 -0.9 94
2019-11-06 19:00:00 3.5 2 Sudeste 13 Este 1 843.9 -1.1 94
2019-11-06 18:00:00 3.8 10 Este 14 Este 0.4 843.9 -1.6 94
2019-11-06 17:00:00 4 9 Este 14 Este 0 844.7 -1.3 94
2019-11-06 16:00:00 4.2 7 Nordeste 14 Este 0 845 -1.5 94
2019-11-06 15:00:00 3.9 9 Nordeste 14 Este 0.2 845.5 -1.5 94
2019-11-06 14:00:00 3.8 8 Este 21 Sudoeste 0 846 -1.1 93
2019-11-06 13:00:00 3.7 7 Oeste 26 Oeste 0 846.5 -0.8 91
2019-11-06 12:00:00 3.1 19 Oeste 30 Oeste 0 847 -0.3 91
2019-11-06 11:00:00 2.2 17 Oeste 36 Oeste 0 847.1 0.5 94
2019-11-06 10:00:00 1.7 22 Oeste 37 Oeste 0 847.3 0.9 95
2019-11-06 09:00:00 1.1 15 Oeste 30 Oeste 0.4 847.3 1.1 95
2019-11-06 08:00:00 0.9 23 Oeste 43 Oeste 0 846.6 0.4 95
2019-11-06 07:00:00 0.7 27 Oeste 47 Oeste 0.2 846.4 0.1 95
2019-11-06 06:00:00 1 36 Oeste 63 Oeste 0 846.2 -0.1 94
2019-11-06 05:00:00 0.9 39 Oeste 68 Oeste 0.4 846.2 -0.1 95
2019-11-06 04:00:00 0.9 41 Oeste 66 Noroeste 0.2 846.3 -0.6 94
2019-11-06 03:00:00 1.6 36 Oeste 69 Oeste 0.4 846.3 -1.1 95
2019-11-06 02:00:00 1.3 38 Oeste 69 Oeste 0.2 846.3 -0.8 94
2019-11-06 01:00:00 1.2 39 Oeste 65 Oeste 0.6 846.9 0.4 95
2019-11-06 00:00:00 0.9 40 Oeste 70 Oeste 1.6 847.4 1.7 95